Latest Weather Observations for Learmonth

IDW60801

Issued at 5:02 am WST Monday 20 April 2015 (issued every 30 minutes, with the page automatically refreshed every 10 minutes)

About weather observations | Map of weather stations | Latest weather observations for WA | Other Formats
Station Details ID: 005007 Name: LEARMONTH AIRPORT Lat: -22.24 Lon: 114.10 Height: 5.0 m
Data from the previous 72 hours. | See also: Recent months at Learmonth
Date/Time
WST
Temp
°C
App
Temp
°C
Dew
Point
Rel
Hum
%
Delta-T
°C
Wind Press
QNH
hPa
Press
MSL
hPa
Rain
since 9 am
mm
Dir
 
Spd
km/h
Gust
km/h
Spd
kts
Gust
kts
20/05:00am 21.6 19.6 17.5 77 2.5 E 24 30 13 16 1015.2 - 0.0
20/04:30am 21.7 19.8 17.7 78 2.5 E 24 32 13 17 1015.2 - 0.0
20/04:00am 21.7 19.4 17.7 78 2.5 E 26 33 14 18 1015.4 - 0.0
20/03:30am 21.7 19.1 17.7 78 2.5 E 28 35 15 19 1015.6 - 0.0
20/03:00am 21.8 19.5 17.6 77 2.6 E 26 35 14 19 1015.7 1015.6 0.0
20/02:30am 21.8 19.6 17.8 78 2.5 E 26 33 14 18 1015.6 - 0.0
20/02:00am 21.8 19.2 17.8 78 2.5 ESE 28 35 15 19 1015.7 - 0.0
20/01:30am 21.5 19.7 17.8 79 2.3 ESE 24 33 13 18 1015.7 - 0.0
20/01:00am 21.6 19.0 17.9 79 2.3 E 28 35 15 19 1015.8 - 0.0
20/12:30am 21.7 18.6 17.5 77 2.6 E 30 37 16 20 1016.2 - 0.0
20/12:00am 21.7 18.3 17.6 77 2.5 E 32 39 17 21 1016.5 1016.4 0.0
 
Date/Time
WST
Temp
°C
App
Temp
°C
Dew
Point
Rel
Hum
%
Delta-T
°C
Wind Press
QNH
hPa
Press
MSL
hPa
Rain
since 9 am
mm
Dir
 
Spd
km/h
Gust
km/h
Spd
kts
Gust
kts
19/11:30pm 21.7 18.7 17.8 78 2.4 ESE 30 39 16 21 1016.8 - 0.0
19/11:00pm 21.9 19.3 17.9 78 2.5 ESE 28 37 15 20 1016.9 - 0.0
19/10:30pm 22.1 19.5 17.7 76 2.7 E 28 37 15 20 1017.0 - 0.0
19/10:00pm 22.5 19.7 17.3 72 3.2 E 28 37 15 20 1017.1 - 0.0
19/09:30pm 22.6 20.2 17.4 72 3.2 ESE 26 33 14 18 1017.3 - 0.0
19/09:00pm 22.8 19.5 16.9 69 3.6 ESE 30 41 16 22 1017.1 1017.0 0.0
19/08:30pm 22.6 20.7 17.6 73 3.1 ESE 24 30 13 16 1016.7 - 0.0
19/08:00pm 22.7 20.0 17.5 72 3.2 E 28 35 15 19 1016.4 - 0.0
19/07:30pm 22.9 19.8 17.6 72 3.3 E 30 35 16 19 1016.0 - 0.0
19/07:00pm 22.9 19.8 17.6 72 3.3 E 30 37 16 20 1016.0 - 0.0
19/06:30pm 22.7 19.9 17.3 71 3.3 E 28 35 15 19 1015.9 - 0.0
19/06:00pm 22.6 20.6 17.4 72 3.2 E 24 35 13 19 1015.6 1015.5 0.0
19/05:30pm 22.6 20.1 17.2 71 3.3 E 26 32 14 17 1015.2 - 0.0
19/05:00pm 22.7 20.2 17.2 71 3.4 E 26 33 14 18 1015.0 - 0.0
19/04:30pm 22.6 19.8 17.4 72 3.2 E 28 37 15 20 1015.1 - 0.0
19/04:00pm 22.8 19.9 17.1 70 3.5 E 28 35 15 19 1015.0 - 0.0
19/03:30pm 22.5 19.8 17.5 73 3.1 ENE 28 37 15 20 1015.0 - 0.0
19/03:00pm 22.4 19.7 17.5 74 3.0 ENE 28 39 15 21 1015.0 1014.9 0.0
19/02:30pm 22.8 19.9 18.0 74 3.0 ENE 30 37 16 20 1015.0 - 0.0
19/02:00pm 22.7 19.5 18.1 75 2.9 ENE 32 41 17 22 1015.0 - 0.0
19/01:30pm 22.9 19.8 18.4 76 2.8 ENE 32 39 17 21 1015.0 - 0.0
19/01:00pm 23.5 20.8 19.3 77 2.7 ENE 32 41 17 22 1015.3 - 0.0
19/12:30pm 23.8 21.0 19.4 76 2.8 ENE 33 41 18 22 1015.6 - 0.0
19/12:00pm 23.2 20.3 19.3 79 2.5 ENE 33 43 18 23 1015.8 1015.7 0.0
19/11:30am 22.8 20.1 19.2 80 2.3 ENE 32 41 17 22 1016.5 - 0.0
19/11:00am 22.7 20.0 19.2 80 2.2 ENE 32 43 17 23 1016.8 - 0.0
19/10:30am 22.6 19.7 18.8 79 2.4 ENE 32 41 17 22 1016.6 - 0.0
19/10:00am 22.6 20.1 18.8 79 2.4 ENE 30 43 16 23 1016.7 - 0.0
19/09:30am 22.4 20.4 19.1 81 2.1 ENE 28 37 15 20 1016.7 - 0.0
19/09:00am 22.3 20.1 19.5 84 1.8 ENE 30 39 16 21 1016.3 1016.2 12.2
19/08:30am 22.3 19.6 19.3 83 1.9 ENE 32 43 17 23 1015.9 - 12.2
19/08:00am 22.1 19.7 19.1 83 1.9 ENE 30 37 16 20 1015.6 - 12.2
19/07:54am 22.1 19.7 19.1 83 1.9 ENE 30 37 16 20 1015.6 - 12.2
19/07:30am 21.9 20.3 19.1 84 1.8 ENE 26 35 14 19 1015.8 - 12.2
19/07:00am 21.7 19.9 19.5 87 1.4 ENE 28 37 15 20 1015.2 - 12.2
19/05:53am 21.6 21.4 19.7 89 1.2 E 20 26 11 14 1014.8 - 12.0
19/05:37am 21.7 21.4 19.5 87 1.4 E 20 24 11 13 1015.0 - 12.0
19/05:30am 21.5 21.6 19.9 91 1.0 E 19 24 10 13 1015.1 - 12.0
19/05:27am 21.6 21.6 19.7 89 1.2 E 19 24 10 13 1015.0 - 12.0
19/05:04am 21.7 22.1 19.8 89 1.2 E 17 20 9 11 1015.0 - 11.6
19/05:00am 21.6 22.0 19.9 90 1.1 E 17 22 9 12 1014.9 - 11.6
19/04:30am 21.9 20.9 19.7 87 1.4 E 24 30 13 16 1014.4 - 11.6
19/04:00am 21.9 21.0 19.9 88 1.3 E 24 32 13 17 1013.9 - 11.6
19/03:30am 22.1 21.2 19.8 87 1.5 ENE 24 30 13 16 1014.0 - 11.4
19/03:00am 22.3 21.6 19.6 85 1.7 E 22 28 12 15 1014.3 1014.2 11.4
19/02:48am 22.4 21.8 19.7 85 1.7 E 22 28 12 15 1014.5 - 11.4
19/02:30am 22.4 22.0 19.4 83 1.9 E 20 28 11 15 1014.7 - 11.4
19/02:00am 22.4 21.3 19.4 83 1.9 E 24 30 13 16 1014.8 - 11.4
19/01:30am 22.5 20.3 19.5 83 1.9 E 30 39 16 21 1014.8 - 11.4
19/01:00am 22.7 20.3 19.1 80 2.3 E 30 39 16 21 1015.1 - 11.4
19/12:30am 23.0 19.8 19.4 80 2.3 E 35 46 19 25 1014.9 - 11.4
19/12:00am 23.1 20.9 19.5 80 2.3 E 30 43 16 23 1015.3 1015.2 11.4
 
Date/Time
WST
Temp
°C
App
Temp
°C
Dew
Point
Rel
Hum
%
Delta-T
°C
Wind Press
QNH
hPa
Press
MSL
hPa
Rain
since 9 am
mm
Dir
 
Spd
km/h
Gust
km/h
Spd
kts
Gust
kts
18/11:30pm 23.1 19.6 19.5 80 2.3 E 37 48 20 26 1015.3 - 11.4
18/11:00pm 23.1 18.4 19.5 80 2.3 ENE 43 59 23 32 1014.9 - 11.4
18/10:59pm 23.1 18.8 19.5 80 2.3 ENE 41 59 22 32 1015.0 - 11.4
18/10:30pm 22.8 19.6 20.2 85 1.7 E 37 50 20 27 1015.3 - 11.4
18/10:00pm 22.6 19.0 20.1 86 1.6 ENE 39 54 21 29 1015.0 - 11.4
18/09:31pm 22.5 20.0 20.2 87 1.5 E 33 52 18 28 1015.3 - 11.4
18/09:30pm 22.5 20.3 20.3 87 1.4 E 32 43 17 23 1015.3 - 11.4
18/09:00pm 22.5 19.5 19.8 85 1.7 E 35 46 19 25 1015.2 1015.1 11.4
18/08:30pm 22.5 19.9 19.8 85 1.7 E 33 46 18 25 1015.2 - 11.4
18/08:00pm 22.4 18.5 19.6 84 1.8 E 39 52 21 28 1014.7 - 11.4
18/07:30pm 22.1 19.8 20.1 88 1.3 E 32 41 17 22 1014.8 - 11.4
18/07:00pm 21.9 20.4 20.3 91 1.0 E 28 37 15 20 1015.3 - 11.4
18/06:30pm 21.9 21.4 20.7 93 0.8 ESE 24 32 13 17 1015.2 - 11.4
18/06:00pm 21.8 21.5 20.4 92 0.9 ESE 22 28 12 15 1014.8 1014.7 11.2
18/05:30pm 21.9 21.6 20.3 91 1.0 E 22 28 12 15 1014.4 - 11.2
18/05:00pm 21.9 21.2 20.3 91 1.0 E 24 32 13 17 1014.0 - 11.0
18/04:30pm 22.1 21.8 20.4 90 1.1 E 22 30 12 16 1014.1 - 10.8
18/04:28pm 22.1 22.0 20.7 92 0.9 E 22 32 12 17 1014.1 - 10.8
18/04:00pm 22.2 22.7 21.1 93 0.7 E 20 28 11 15 1014.1 - 10.4
18/03:30pm 22.2 22.1 20.8 92 0.9 E 22 28 12 15 1014.2 - 9.8
18/03:18pm 22.1 21.7 20.9 93 0.8 E 24 32 13 17 1014.1 - 9.4
18/03:00pm 22.2 21.6 20.5 90 1.1 E 24 32 13 17 1014.1 1014.0 9.2
18/02:52pm 22.2 21.2 20.5 90 1.1 E 26 32 14 17 1014.1 - 9.0
18/02:30pm 22.3 21.7 20.4 89 1.2 E 24 32 13 17 1014.2 - 9.0
18/02:29pm 22.3 21.7 20.6 90 1.1 E 24 32 13 17 1014.2 - 9.0
18/02:00pm 22.5 22.0 20.8 90 1.1 E 24 32 13 17 1014.3 - 8.8
18/01:30pm 22.1 20.8 20.6 91 1.0 E 28 33 15 18 1014.6 - 8.8
18/01:23pm 22.1 21.2 20.6 91 1.0 E 26 33 14 18 1014.6 - 8.8
18/01:00pm 22.1 21.5 20.6 91 1.0 E 24 32 13 17 1014.9 - 8.8
18/12:40pm 22.1 21.6 20.7 92 0.9 E 24 30 13 16 1015.3 - 8.8
18/12:30pm 22.0 21.5 20.8 93 0.8 E 24 30 13 16 1015.4 - 8.8
18/12:00pm 21.3 20.7 20.5 95 0.5 E 24 28 13 15 1016.0 1015.9 8.4
18/11:46am 21.3 20.7 20.5 95 0.5 E 24 32 13 17 1016.4 - 8.0
18/11:30am 21.2 20.2 20.4 95 0.5 E 26 32 14 17 1016.6 - 7.8
18/11:00am 21.2 20.1 20.3 95 0.6 E 26 32 14 17 1017.0 - 6.6
18/10:55am 21.3 20.3 20.5 95 0.5 E 26 32 14 17 1017.0 - 6.6
18/10:30am 21.1 20.0 20.2 95 0.6 E 26 33 14 18 1017.2 - 5.8
18/10:22am 21.1 20.4 20.3 95 0.5 E 24 32 13 17 1017.2 - 5.6
18/10:06am 21.2 20.1 20.3 95 0.6 E 26 32 14 17 1017.4 - 4.8
18/10:00am 21.1 20.0 20.2 95 0.6 E 26 35 14 19 1017.3 - 4.6
18/09:49am 21.3 21.0 20.4 95 0.6 E 22 28 12 15 1017.3 - 3.6
18/09:30am 21.2 20.4 20.1 93 0.7 E 24 30 13 16 1017.3 - 2.6
18/09:00am 21.2 21.5 20.3 95 0.6 E 19 26 10 14 1017.1 1017.0 7.6
18/08:47am 21.4 21.6 20.2 93 0.8 ESE 19 24 10 13 1016.9 - 6.6
18/08:37am 21.4 22.0 20.3 93 0.7 ESE 17 22 9 12 1016.7 - 6.0
18/08:30am 21.4 21.6 20.2 93 0.8 ESE 19 24 10 13 1016.6 - 5.8
18/08:11am 21.2 22.6 20.4 95 0.5 SE 13 17 7 9 1016.4 - 5.6
18/08:00am 21.2 22.6 20.3 95 0.6 SE 13 17 7 9 1016.3 - 5.2
18/07:30am 21.0 22.3 20.2 95 0.5 SSE 13 15 7 8 1015.9 - 4.2
18/07:00am 21.2 23.4 20.3 95 0.6 SSE 9 13 5 7 1015.6 - 3.8
18/06:30am 21.3 22.7 20.4 95 0.6 ESE 13 17 7 9 1015.4 - 3.0
18/06:00am 21.7 23.5 20.3 92 0.9 ESE 11 15 6 8 1015.2 1015.1 1.6
18/05:30am 21.8 24.2 20.9 95 0.6 S 9 13 5 7 1015.0 - 1.2
18/05:00am 21.8 24.1 20.7 93 0.7 SSE 9 11 5 6 1014.7 - 1.0
18/04:30am 21.8 24.3 21.0 95 0.5 S 9 9 5 5 1014.7 - 1.0
18/04:00am 21.8 24.3 21.0 95 0.5 SSW 9 9 5 5 1014.5 - 1.0
18/03:30am 21.9 24.3 20.8 93 0.7 S 9 11 5 6 1014.7 - 0.8
18/03:00am 22.1 25.1 20.9 93 0.8 S 6 7 3 4 1014.9 1014.8 0.6
18/02:30am 22.0 25.0 20.9 93 0.7 S 6 9 3 5 1015.1 - 0.6
18/02:00am 22.2 25.3 21.0 93 0.8 S 6 7 3 4 1015.3 - 0.6
18/01:30am 22.2 24.9 20.7 91 1.0 SSE 7 11 4 6 1015.6 - 0.6
18/01:00am 22.1 24.8 20.6 91 1.0 S 7 11 4 6 1015.7 - 0.6
18/12:30am 22.6 25.1 21.1 91 1.0 SSE 9 13 5 7 1015.7 - 0.6
18/12:00am 22.5 24.7 20.3 87 1.4 SE 9 11 5 6 1015.6 1015.5 0.6
 
Date/Time
WST
Temp
°C
App
Temp
°C
Dew
Point
Rel
Hum
%
Delta-T
°C
Wind Press
QNH
hPa
Press
MSL
hPa
Rain
since 9 am
mm
Dir
 
Spd
km/h
Gust
km/h
Spd
kts
Gust
kts
17/11:30pm 22.8 24.4 20.0 84 1.8 E 11 13 6 7 1015.6 - 0.6
17/11:00pm 23.3 25.5 20.4 84 1.9 NE 9 11 5 6 1015.6 - 0.6
17/10:30pm 23.1 25.0 20.6 86 1.6 NE 11 13 6 7 1015.5 - 0.6
17/10:00pm 23.5 25.6 20.1 81 2.2 NNE 9 13 5 7 1015.5 - 0.4
17/09:30pm 23.6 27.1 20.4 82 2.1 N 2 11 1 6 1015.2 - 0.4
17/09:00pm 23.5 27.1 22.0 91 1.0 NNW 6 7 3 4 1015.6 1015.5 0.4
17/08:30pm 23.5 27.6 21.5 88 1.3 N 2 7 1 4 1015.5 - 0.4
17/08:00pm 23.7 26.8 21.4 87 1.5 N 7 11 4 6 1015.1 - 0.4
17/07:30pm 24.1 28.7 21.8 87 1.5 CALM 0 0 0 0 1014.8 - 0.0
17/07:00pm 24.3 28.4 20.8 81 2.3 CALM 0 4 0 2 1014.6 - 0.0
17/06:30pm 24.4 29.0 21.8 85 1.7 CALM 0 9 0 5 1014.4 - 0.0
17/06:00pm 25.0 28.7 19.9 73 3.3 CALM 0 0 0 0 1014.2 1014.1 0.0
17/05:30pm 25.2 29.1 20.4 74 3.1 CALM 0 0 0 0 1013.9 - 0.0
17/05:00pm 24.9 26.3 20.3 75 3.0 S 13 20 7 11 1013.4 - 0.0
17/04:30pm 26.3 25.7 18.8 63 4.8 S 20 24 11 13 1013.4 - 0.0
17/04:00pm 27.1 26.8 18.3 58 5.6 SSE 17 22 9 12 1013.8 - 0.0
17/03:30pm 27.6 26.4 18.5 57 5.8 SSE 22 30 12 16 1013.4 - 0.0
17/03:00pm 27.9 28.5 18.7 57 5.9 S 13 19 7 10 1013.5 1013.4 0.0
17/02:30pm 27.6 30.0 18.0 55 6.1 ENE 2 9 1 5 1013.8 - 0.0
17/02:00pm 27.5 29.2 18.6 58 5.7 E 7 11 4 6 1013.9 - 0.0
17/01:30pm 27.4 28.4 18.6 58 5.6 ENE 11 15 6 8 1013.8 - 0.0
17/01:00pm 27.1 28.0 18.5 59 5.5 E 11 17 6 9 1013.8 - 0.0
17/12:30pm 27.5 27.9 18.2 57 5.9 ESE 13 17 7 9 1013.9 - 0.0
17/12:00pm 27.4 28.3 19.2 61 5.3 E 13 17 7 9 1014.3 1014.2 0.0
17/11:30am 27.7 30.4 19.4 60 5.4 SE 4 9 2 5 1014.5 - 0.0
17/11:00am 27.0 28.6 18.2 58 5.6 ESE 7 11 4 6 1014.7 - 0.0
17/10:30am 26.5 26.1 19.0 63 4.8 SE 19 24 10 13 1015.3 - 0.0
17/10:00am 26.7 29.6 19.1 63 4.9 N 2 7 1 4 1015.5 - 0.0
17/09:30am 26.3 27.3 19.5 66 4.4 NE 13 17 7 9 1015.6 - 0.0
17/09:00am 26.1 26.6 18.4 62 4.9 E 13 19 7 10 1015.6 1015.5 0.0
17/08:30am 24.6 25.7 20.5 78 2.7 SSE 15 19 8 10 1015.8 - 0.0
17/08:00am 24.4 25.2 19.1 72 3.4 E 13 15 7 8 1015.6 - 0.0
17/07:30am 23.3 26.2 18.2 73 3.2 CALM 0 0 0 0 1015.4 - 0.0
17/07:00am 23.1 24.1 17.8 72 3.3 SSW 9 11 5 6 1015.1 - 0.0
17/06:30am 23.0 24.1 17.9 73 3.2 SSW 9 11 5 6 1014.8 - 0.0
17/06:00am 22.8 23.4 17.8 73 3.1 SSW 11 13 6 7 1014.3 1014.2 0.0
17/05:30am 23.3 23.3 17.1 68 3.8 SSW 13 15 7 8 1014.1 - 0.0

Other Formats:

Comma delimited format used in spreadsheet applications
http://www.bom.gov.au/fwo/IDW60801/IDW60801.94302.axf

JavaScript Object Notation format (JSON) in row-major order
http://www.bom.gov.au/fwo/IDW60801/IDW60801.94302.json